TSC106 CYMX-MMAA
Flight info
| Callsign | TSC106 |
|---|---|
| Flight time | 5h 2m |
| Altitude | 34000 |
| Route | COMAU Q955 REEDO Q844 SYR J59 AUDIL Q84 JHW Q29 DORET Q82 WWSHR Q29 BAKRE Q32 ELD J29 PSX J177 TAM UT163 VOLOM UT167 OTMOS UT56 CUA UJ55 ANALU ANALU1B |
| Aircraft | MD11/H-SDE1E2E3FGHIJ2J3J4J5M1RWXY/LB1D1 |
Departure
| Time | 2026-04-24 10:42 |
|---|---|
| Airport | Montreal Mirabel International Airport (CYMX) |
Arrival
| Time | 2026-04-24 15:44 |
|---|---|
| Airport | General Juan N. Álvarez International Airport (MMAA) |
| Time | Latitude | Longitude | Altitude | Speed | Heading |
|---|---|---|---|---|---|
| 2026-04-24 10:01 | 45.68419 | -74.01580 | 274 ft | 0 kts | 122° |
| 2026-04-24 10:24 | 45.68432 | -74.01601 | 277 ft | 4 kts | 164° |
| 2026-04-24 10:24 | 45.68452 | -74.01609 | 274 ft | 0 kts | 154° |
| 2026-04-24 10:32 | 45.68451 | -74.01609 | 274 ft | 0 kts | 155° |
| 2026-04-24 10:33 | 45.68447 | -74.01610 | 274 ft | 0 kts | 173° |
| 2026-04-24 10:33 | 45.68443 | -74.01615 | 274 ft | 1 kts | 204° |
| 2026-04-24 10:33 | 45.68430 | -74.01650 | 275 ft | 8 kts | 253° |
| 2026-04-24 10:33 | 45.68435 | -74.01776 | 278 ft | 17 kts | 284° |
| 2026-04-24 10:34 | 45.68447 | -74.01901 | 275 ft | 8 kts | 249° |
| 2026-04-24 10:34 | 45.68424 | -74.01915 | 275 ft | 3 kts | 175° |
| 2026-04-24 10:34 | 45.68410 | -74.01896 | 275 ft | 5 kts | 135° |
| 2026-04-24 10:34 | 45.68361 | -74.01827 | 275 ft | 15 kts | 135° |
| 2026-04-24 10:35 | 45.68261 | -74.01684 | 278 ft | 25 kts | 131° |
| 2026-04-24 10:35 | 45.68121 | -74.01555 | 275 ft | 16 kts | 192° |
| 2026-04-24 10:35 | 45.68055 | -74.01635 | 276 ft | 14 kts | 224° |
| 2026-04-24 10:35 | 45.67964 | -74.01753 | 276 ft | 21 kts | 223° |
| 2026-04-24 10:36 | 45.67844 | -74.01925 | 279 ft | 27 kts | 226° |
| 2026-04-24 10:36 | 45.67715 | -74.02117 | 281 ft | 26 kts | 226° |
| 2026-04-24 10:36 | 45.67596 | -74.02300 | 279 ft | 24 kts | 226° |
| 2026-04-24 10:36 | 45.67478 | -74.02482 | 280 ft | 26 kts | 231° |
| 2026-04-24 10:37 | 45.67396 | -74.02719 | 280 ft | 28 kts | 250° |
| 2026-04-24 10:37 | 45.67331 | -74.02989 | 285 ft | 29 kts | 250° |
| 2026-04-24 10:37 | 45.67263 | -74.03248 | 281 ft | 27 kts | 249° |
| 2026-04-24 10:37 | 45.67199 | -74.03494 | 281 ft | 26 kts | 250° |
| 2026-04-24 10:38 | 45.67137 | -74.03725 | 281 ft | 24 kts | 249° |
| 2026-04-24 10:38 | 45.67083 | -74.03946 | 281 ft | 23 kts | 251° |
| 2026-04-24 10:38 | 45.67017 | -74.04140 | 281 ft | 21 kts | 217° |
| 2026-04-24 10:38 | 45.66885 | -74.04184 | 281 ft | 19 kts | 187° |
| 2026-04-24 10:39 | 45.66759 | -74.04210 | 280 ft | 18 kts | 189° |
| 2026-04-24 10:39 | 45.66638 | -74.04244 | 280 ft | 17 kts | 201° |
| 2026-04-24 10:39 | 45.66604 | -74.04364 | 282 ft | 12 kts | 276° |
| 2026-04-24 10:39 | 45.66607 | -74.04393 | 281 ft | 0 kts | 277° |
| 2026-04-24 10:41 | 45.66607 | -74.04397 | 281 ft | 7 kts | 277° |
| 2026-04-24 10:41 | 45.66659 | -74.04881 | 280 ft | 90 kts | 279° |
| 2026-04-24 10:41 | 45.66787 | -74.06115 | 274 ft | 158 kts | 278° |
| 2026-04-24 10:41 | 45.66969 | -74.07846 | 536 ft | 185 kts | 279° |
| 2026-04-24 10:42 | 45.67184 | -74.09721 | 1053 ft | 197 kts | 279° |
| 2026-04-24 10:42 | 45.67418 | -74.11689 | 1773 ft | 198 kts | 279° |
| 2026-04-24 10:42 | 45.67606 | -74.13467 | 2947 ft | 182 kts | 276° |
| 2026-04-24 10:42 | 45.67333 | -74.15181 | 3845 ft | 180 kts | 242° |
| 2026-04-24 10:43 | 45.66358 | -74.16359 | 4468 ft | 197 kts | 204° |
| 2026-04-24 10:43 | 45.64958 | -74.16539 | 5039 ft | 209 kts | 165° |
| 2026-04-24 10:43 | 45.63597 | -74.15740 | 5532 ft | 222 kts | 152° |
| 2026-04-24 10:43 | 45.62126 | -74.14673 | 5700 ft | 251 kts | 151° |
| 2026-04-24 10:44 | 45.60493 | -74.13492 | 5844 ft | 276 kts | 152° |
| 2026-04-24 10:44 | 45.58720 | -74.12216 | 6338 ft | 289 kts | 152° |
| 2026-04-24 10:44 | 45.56883 | -74.11002 | 7187 ft | 294 kts | 157° |
| 2026-04-24 10:44 | 45.54946 | -74.09990 | 8013 ft | 299 kts | 162° |
| 2026-04-24 10:45 | 45.52927 | -74.09183 | 8805 ft | 304 kts | 167° |
| 2026-04-24 10:45 | 45.50852 | -74.08530 | 9577 ft | 308 kts | 170° |
| 2026-04-24 10:45 | 45.48714 | -74.07977 | 10188 ft | 319 kts | 172° |
| 2026-04-24 10:45 | 45.46422 | -74.07472 | 10328 ft | 347 kts | 173° |
| 2026-04-24 10:46 | 45.43940 | -74.06988 | 10464 ft | 374 kts | 174° |
| 2026-04-24 10:46 | 45.41300 | -74.06520 | 10953 ft | 386 kts | 175° |
| 2026-04-24 10:46 | 45.38601 | -74.06455 | 11595 ft | 390 kts | 189° |
| 2026-04-24 10:46 | 45.36014 | -74.07537 | 12216 ft | 388 kts | 213° |
| 2026-04-24 10:47 | 45.33940 | -74.09883 | 12836 ft | 379 kts | 236° |
| 2026-04-24 10:47 | 45.32421 | -74.12914 | 13447 ft | 376 kts | 246° |
| 2026-04-24 10:47 | 45.31126 | -74.16143 | 14131 ft | 377 kts | 249° |
| 2026-04-24 10:47 | 45.29862 | -74.19432 | 14794 ft | 381 kts | 249° |
| 2026-04-24 10:48 | 45.28569 | -74.22735 | 15393 ft | 386 kts | 249° |
| 2026-04-24 10:48 | 45.27224 | -74.26053 | 16032 ft | 389 kts | 249° |
| 2026-04-24 10:48 | 45.25840 | -74.29379 | 16616 ft | 393 kts | 248° |
| 2026-04-24 10:48 | 45.24424 | -74.32725 | 17200 ft | 397 kts | 248° |
| 2026-04-24 10:49 | 45.22990 | -74.36081 | 17795 ft | 399 kts | 249° |
| 2026-04-24 10:49 | 45.21537 | -74.39467 | 18314 ft | 403 kts | 249° |
| 2026-04-24 10:49 | 45.20066 | -74.42868 | 18842 ft | 407 kts | 249° |
| 2026-04-24 10:49 | 45.18572 | -74.46293 | 19315 ft | 411 kts | 248° |
| 2026-04-24 10:50 | 45.17061 | -74.49746 | 19788 ft | 414 kts | 248° |
| 2026-04-24 10:50 | 45.15558 | -74.53180 | 20268 ft | 416 kts | 248° |
| 2026-04-24 10:50 | 45.14007 | -74.56721 | 20731 ft | 419 kts | 248° |
| 2026-04-24 10:50 | 45.12487 | -74.60194 | 21156 ft | 422 kts | 249° |
| 2026-04-24 10:51 | 45.10972 | -74.63810 | 21676 ft | 422 kts | 250° |
| 2026-04-24 10:51 | 45.09518 | -74.67437 | 22088 ft | 425 kts | 250° |
| 2026-04-24 10:51 | 45.08098 | -74.71039 | 22568 ft | 427 kts | 251° |
| 2026-04-24 10:51 | 45.06651 | -74.74723 | 23064 ft | 429 kts | 251° |
| 2026-04-24 10:52 | 45.05195 | -74.78427 | 23505 ft | 432 kts | 251° |
| 2026-04-24 10:52 | 45.03726 | -74.82152 | 23990 ft | 434 kts | 251° |
| 2026-04-24 10:52 | 45.02226 | -74.85946 | 24458 ft | 437 kts | 250° |
| 2026-04-24 10:52 | 45.00756 | -74.89661 | 24935 ft | 439 kts | 250° |
| 2026-04-24 10:53 | 44.99234 | -74.93496 | 25362 ft | 443 kts | 251° |
| 2026-04-24 10:53 | 44.97865 | -74.97314 | 25808 ft | 440 kts | 255° |
| 2026-04-24 10:53 | 44.96641 | -75.01335 | 26247 ft | 440 kts | 258° |
| 2026-04-24 10:53 | 44.95522 | -75.05347 | 26710 ft | 440 kts | 258° |
| 2026-04-24 10:54 | 44.94425 | -75.09394 | 27133 ft | 443 kts | 259° |
| 2026-04-24 10:54 | 44.93324 | -75.13469 | 27497 ft | 446 kts | 259° |
| 2026-04-24 10:54 | 44.92219 | -75.17520 | 27904 ft | 450 kts | 258° |
| 2026-04-24 10:54 | 44.91083 | -75.21641 | 28356 ft | 452 kts | 258° |
| 2026-04-24 10:55 | 44.89934 | -75.25768 | 28741 ft | 455 kts | 258° |
| 2026-04-24 10:55 | 44.88767 | -75.29935 | 29117 ft | 457 kts | 258° |
| 2026-04-24 10:55 | 44.87591 | -75.34119 | 29450 ft | 461 kts | 258° |
| 2026-04-24 10:55 | 44.86406 | -75.38327 | 29828 ft | 463 kts | 258° |
| 2026-04-24 10:56 | 44.85215 | -75.42542 | 30260 ft | 463 kts | 258° |
| 2026-04-24 10:56 | 44.84033 | -75.46743 | 30717 ft | 461 kts | 258° |
| 2026-04-24 10:56 | 44.82885 | -75.50960 | 31123 ft | 460 kts | 259° |
| 2026-04-24 10:56 | 44.81769 | -75.55164 | 31568 ft | 458 kts | 259° |
| 2026-04-24 10:57 | 44.80667 | -75.59363 | 31980 ft | 456 kts | 259° |
| 2026-04-24 10:57 | 44.79571 | -75.63549 | 32344 ft | 456 kts | 260° |
| 2026-04-24 10:57 | 44.78476 | -75.67729 | 32731 ft | 455 kts | 260° |
| 2026-04-24 10:57 | 44.77379 | -75.71901 | 33104 ft | 453 kts | 260° |
| 2026-04-24 10:58 | 44.76283 | -75.76054 | 33476 ft | 452 kts | 260° |
| 2026-04-24 10:58 | 44.75185 | -75.80181 | 33847 ft | 450 kts | 259° |
| 2026-04-24 10:58 | 44.73944 | -75.84275 | 34007 ft | 460 kts | 254° |
| 2026-04-24 10:58 | 44.72283 | -75.88194 | 34047 ft | 476 kts | 244° |
| 2026-04-24 10:59 | 44.70065 | -75.91737 | 34052 ft | 491 kts | 233° |
| 2026-04-24 10:59 | 44.67355 | -75.94770 | 34053 ft | 506 kts | 223° |
| 2026-04-24 10:59 | 44.64244 | -75.97225 | 34082 ft | 520 kts | 213° |
| 2026-04-24 10:59 | 44.60853 | -75.98977 | 34049 ft | 520 kts | 202° |
| 2026-04-24 11:00 | 44.57284 | -75.99969 | 34046 ft | 526 kts | 194° |
| 2026-04-24 11:00 | 44.49946 | -76.00789 | 34038 ft | 530 kts | 189° |
| 2026-04-24 11:01 | 44.42576 | -76.01342 | 34031 ft | 530 kts | 190° |
| 2026-04-24 11:01 | 44.35226 | -76.02062 | 34040 ft | 529 kts | 192° |
| 2026-04-24 11:02 | 44.27917 | -76.03094 | 34033 ft | 527 kts | 194° |
| 2026-04-24 11:02 | 44.20548 | -76.04309 | 34054 ft | 539 kts | 194° |
| 2026-04-24 11:03 | 44.13078 | -76.05521 | 34056 ft | 541 kts | 194° |
| 2026-04-24 11:03 | 44.05638 | -76.06690 | 34054 ft | 542 kts | 194° |
| 2026-04-24 11:04 | 43.98145 | -76.07858 | 34053 ft | 541 kts | 194° |
| 2026-04-24 11:04 | 43.90662 | -76.09024 | 34053 ft | 541 kts | 194° |
| 2026-04-24 11:05 | 43.83187 | -76.10192 | 34054 ft | 540 kts | 194° |
| 2026-04-24 11:05 | 43.75713 | -76.11356 | 34047 ft | 540 kts | 194° |
| 2026-04-24 11:06 | 43.68248 | -76.12516 | 34046 ft | 540 kts | 194° |
| 2026-04-24 11:06 | 43.60795 | -76.13666 | 34040 ft | 538 kts | 194° |
| 2026-04-24 11:07 | 43.49661 | -76.15379 | 34028 ft | 536 kts | 193° |
| 2026-04-24 11:07 | 43.42254 | -76.16515 | 34016 ft | 534 kts | 193° |
| 2026-04-24 11:08 | 43.34880 | -76.17643 | 34018 ft | 532 kts | 193° |
| 2026-04-24 11:08 | 43.27531 | -76.18766 | 34017 ft | 530 kts | 193° |
| 2026-04-24 11:09 | 43.20213 | -76.19882 | 34009 ft | 528 kts | 194° |
| 2026-04-24 11:09 | 43.13212 | -76.22108 | 34006 ft | 505 kts | 212° |
| 2026-04-24 11:10 | 43.10135 | -76.24279 | 34010 ft | 492 kts | 221° |
| 2026-04-24 11:10 | 43.07293 | -76.26825 | 34011 ft | 487 kts | 224° |
| 2026-04-24 11:10 | 43.01702 | -76.32089 | 34002 ft | 488 kts | 223° |
| 2026-04-24 11:11 | 42.95988 | -76.37110 | 33994 ft | 489 kts | 221° |
| 2026-04-24 11:11 | 42.91219 | -76.41244 | 33993 ft | 484 kts | 225° |
| 2026-04-24 11:12 | 42.88654 | -76.44121 | 33990 ft | 471 kts | 234° |
| 2026-04-24 11:12 | 42.86572 | -76.47472 | 33987 ft | 457 kts | 245° |
| 2026-04-24 11:12 | 42.84674 | -76.52452 | 33989 ft | 441 kts | 257° |
| 2026-04-24 11:12 | 42.83687 | -76.56387 | 33991 ft | 438 kts | 261° |
| 2026-04-24 11:13 | 42.82247 | -76.63036 | 33990 ft | 437 kts | 262° |
| 2026-04-24 11:13 | 42.80476 | -76.70972 | 33989 ft | 439 kts | 260° |
| 2026-04-24 11:14 | 42.78598 | -76.78893 | 33999 ft | 440 kts | 259° |
| 2026-04-24 11:14 | 42.76688 | -76.86750 | 33998 ft | 441 kts | 259° |
| 2026-04-24 11:15 | 42.74754 | -76.94664 | 33999 ft | 442 kts | 259° |
| 2026-04-24 11:15 | 42.72808 | -77.02605 | 34001 ft | 443 kts | 259° |
| 2026-04-24 11:16 | 42.70837 | -77.10607 | 34001 ft | 444 kts | 259° |
| 2026-04-24 11:16 | 42.68870 | -77.18565 | 33998 ft | 444 kts | 259° |
| 2026-04-24 11:17 | 42.66917 | -77.26481 | 34004 ft | 445 kts | 258° |
| 2026-04-24 11:17 | 42.64937 | -77.34462 | 34008 ft | 446 kts | 258° |
| 2026-04-24 11:18 | 42.62942 | -77.42459 | 34008 ft | 448 kts | 258° |
| 2026-04-24 11:18 | 42.60939 | -77.50468 | 34000 ft | 448 kts | 258° |
| 2026-04-24 11:19 | 42.58924 | -77.58492 | 33996 ft | 450 kts | 258° |
| 2026-04-24 11:19 | 42.56865 | -77.66516 | 33991 ft | 451 kts | 257° |
| 2026-04-24 11:20 | 42.54807 | -77.74556 | 33992 ft | 452 kts | 257° |
| 2026-04-24 11:20 | 42.52759 | -77.82615 | 33990 ft | 452 kts | 257° |
| 2026-04-24 11:21 | 42.50706 | -77.90682 | 33989 ft | 453 kts | 257° |
| 2026-04-24 11:21 | 42.48647 | -77.98750 | 33987 ft | 453 kts | 257° |
| 2026-04-24 11:22 | 42.46576 | -78.06823 | 33981 ft | 455 kts | 256° |
| 2026-04-24 11:22 | 42.44498 | -78.14914 | 33981 ft | 455 kts | 256° |
| 2026-04-24 11:23 | 42.42409 | -78.23021 | 33977 ft | 456 kts | 256° |
| 2026-04-24 11:23 | 42.40312 | -78.31115 | 33971 ft | 456 kts | 256° |
| 2026-04-24 11:24 | 42.38208 | -78.39210 | 33970 ft | 456 kts | 256° |
| 2026-04-24 11:24 | 42.36104 | -78.47294 | 33963 ft | 456 kts | 256° |
| 2026-04-24 11:25 | 42.34006 | -78.55316 | 33960 ft | 456 kts | 256° |
| 2026-04-24 11:25 | 42.31870 | -78.63451 | 33967 ft | 456 kts | 256° |
| 2026-04-24 11:26 | 42.29731 | -78.71468 | 33969 ft | 457 kts | 256° |
| 2026-04-24 11:26 | 42.27571 | -78.79541 | 33955 ft | 457 kts | 256° |
| 2026-04-24 11:27 | 42.25422 | -78.87621 | 33951 ft | 457 kts | 256° |
| 2026-04-24 11:27 | 42.23277 | -78.95688 | 33955 ft | 456 kts | 256° |
| 2026-04-24 11:28 | 42.21125 | -79.03758 | 33937 ft | 458 kts | 256° |
| 2026-04-24 11:28 | 42.18967 | -79.11841 | 33939 ft | 458 kts | 256° |
| 2026-04-24 11:29 | 42.16859 | -79.19942 | 33943 ft | 457 kts | 257° |
| 2026-04-24 11:29 | 42.14781 | -79.28043 | 33940 ft | 458 kts | 257° |
| 2026-04-24 11:30 | 42.12700 | -79.36155 | 33946 ft | 458 kts | 257° |
| 2026-04-24 11:30 | 42.10611 | -79.44273 | 33946 ft | 459 kts | 257° |
| 2026-04-24 11:31 | 42.08509 | -79.52387 | 33936 ft | 459 kts | 256° |
| 2026-04-24 11:31 | 42.06399 | -79.60499 | 33935 ft | 460 kts | 257° |
| 2026-04-24 11:32 | 42.04296 | -79.68564 | 33936 ft | 460 kts | 257° |
| 2026-04-24 11:32 | 42.02171 | -79.76681 | 33932 ft | 460 kts | 256° |
| 2026-04-24 11:33 | 42.00044 | -79.84801 | 33924 ft | 461 kts | 256° |
| 2026-04-24 11:33 | 41.97908 | -79.92915 | 33925 ft | 460 kts | 256° |
| 2026-04-24 11:34 | 41.95770 | -80.01013 | 33923 ft | 460 kts | 256° |
| 2026-04-24 11:34 | 41.93623 | -80.09111 | 33915 ft | 460 kts | 256° |
| 2026-04-24 11:35 | 41.91468 | -80.17199 | 33916 ft | 460 kts | 256° |
| 2026-04-24 11:35 | 41.89280 | -80.25273 | 33916 ft | 460 kts | 256° |
| 2026-04-24 11:36 | 41.87115 | -80.33285 | 33915 ft | 461 kts | 256° |
| 2026-04-24 11:36 | 41.84940 | -80.41363 | 33915 ft | 460 kts | 256° |
| 2026-04-24 11:37 | 41.82734 | -80.49432 | 33919 ft | 462 kts | 255° |
| 2026-04-24 11:37 | 41.80350 | -80.57444 | 33915 ft | 463 kts | 253° |
| 2026-04-24 11:38 | 41.77914 | -80.65437 | 33916 ft | 463 kts | 253° |
| 2026-04-24 11:38 | 41.75485 | -80.73434 | 33915 ft | 463 kts | 253° |
| 2026-04-24 11:39 | 41.73052 | -80.81434 | 33916 ft | 464 kts | 253° |
| 2026-04-24 11:39 | 41.70619 | -80.89427 | 33915 ft | 464 kts | 253° |
| 2026-04-24 11:40 | 41.68179 | -80.97424 | 33915 ft | 464 kts | 253° |
| 2026-04-24 11:40 | 41.65733 | -81.05418 | 33915 ft | 465 kts | 253° |
| 2026-04-24 11:41 | 41.63274 | -81.13416 | 33914 ft | 465 kts | 253° |
| 2026-04-24 11:41 | 41.60824 | -81.21360 | 33915 ft | 466 kts | 252° |
| 2026-04-24 11:42 | 41.58354 | -81.29355 | 33906 ft | 467 kts | 252° |
| 2026-04-24 11:42 | 41.55869 | -81.37369 | 33912 ft | 466 kts | 252° |
| 2026-04-24 11:43 | 41.53383 | -81.45370 | 33915 ft | 467 kts | 252° |
| 2026-04-24 11:43 | 41.50880 | -81.53365 | 33914 ft | 467 kts | 252° |
| 2026-04-24 11:44 | 41.48340 | -81.61356 | 33906 ft | 468 kts | 252° |
| 2026-04-24 11:44 | 41.45819 | -81.69351 | 33900 ft | 468 kts | 252° |
| 2026-04-24 11:45 | 41.43302 | -81.77341 | 33897 ft | 467 kts | 252° |
| 2026-04-24 11:45 | 41.40781 | -81.85331 | 33898 ft | 468 kts | 252° |
| 2026-04-24 11:46 | 41.38256 | -81.93314 | 33898 ft | 468 kts | 252° |
| 2026-04-24 11:46 | 41.35695 | -82.01282 | 33906 ft | 469 kts | 250° |
| 2026-04-24 11:47 | 41.32752 | -82.09070 | 33913 ft | 472 kts | 246° |
| 2026-04-24 11:47 | 41.29649 | -82.16758 | 33915 ft | 472 kts | 246° |
| 2026-04-24 11:48 | 41.26553 | -82.24444 | 33915 ft | 471 kts | 246° |
| 2026-04-24 11:48 | 41.23479 | -82.32132 | 33915 ft | 471 kts | 246° |
| 2026-04-24 11:49 | 41.20406 | -82.39814 | 33915 ft | 471 kts | 246° |
| 2026-04-24 11:49 | 41.17333 | -82.47488 | 33923 ft | 471 kts | 246° |
| 2026-04-24 11:50 | 41.14100 | -82.55058 | 33925 ft | 474 kts | 240° |
| 2026-04-24 11:50 | 41.10199 | -82.62130 | 33926 ft | 475 kts | 236° |
| 2026-04-24 11:51 | 41.06134 | -82.69037 | 33924 ft | 475 kts | 236° |
| 2026-04-24 11:51 | 41.02099 | -82.75963 | 33926 ft | 474 kts | 236° |
| 2026-04-24 11:52 | 40.98125 | -82.82858 | 33926 ft | 474 kts | 236° |
| 2026-04-24 11:52 | 40.94127 | -82.89798 | 33925 ft | 474 kts | 236° |
| 2026-04-24 11:53 | 40.90135 | -82.96715 | 33924 ft | 473 kts | 236° |
| 2026-04-24 11:53 | 40.86136 | -83.03619 | 33925 ft | 473 kts | 236° |
| 2026-04-24 11:54 | 40.82137 | -83.10515 | 33925 ft | 472 kts | 236° |
| 2026-04-24 11:54 | 40.78139 | -83.17391 | 33924 ft | 472 kts | 236° |
| 2026-04-24 11:55 | 40.74140 | -83.24253 | 33925 ft | 472 kts | 236° |
| 2026-04-24 11:55 | 40.70010 | -83.30992 | 33924 ft | 473 kts | 230° |
| 2026-04-24 11:56 | 40.65380 | -83.37173 | 33926 ft | 474 kts | 227° |
| 2026-04-24 11:56 | 40.60647 | -83.43208 | 33924 ft | 473 kts | 227° |
| 2026-04-24 11:57 | 40.55940 | -83.49269 | 33933 ft | 473 kts | 227° |
| 2026-04-24 11:57 | 40.51268 | -83.55333 | 33935 ft | 472 kts | 227° |
| 2026-04-24 11:58 | 40.47387 | -83.60371 | 33934 ft | 472 kts | 227° |
| 2026-04-24 11:58 | 40.42717 | -83.66408 | 33935 ft | 471 kts | 227° |
| 2026-04-24 11:59 | 40.38050 | -83.72434 | 33934 ft | 470 kts | 227° |
| 2026-04-24 11:59 | 40.33389 | -83.78450 | 33939 ft | 470 kts | 227° |
| 2026-04-24 12:00 | 40.28731 | -83.84452 | 33949 ft | 469 kts | 227° |
| 2026-04-24 12:00 | 40.24069 | -83.90445 | 33936 ft | 469 kts | 227° |
| 2026-04-24 12:01 | 40.19404 | -83.96423 | 33954 ft | 469 kts | 227° |
| 2026-04-24 12:01 | 40.14741 | -84.02391 | 33952 ft | 469 kts | 227° |
| 2026-04-24 12:02 | 40.10056 | -84.08379 | 33933 ft | 475 kts | 225° |
| 2026-04-24 12:02 | 40.05320 | -84.14411 | 33934 ft | 476 kts | 225° |
| 2026-04-24 12:03 | 40.00581 | -84.20438 | 33934 ft | 476 kts | 225° |
| 2026-04-24 12:03 | 39.95831 | -84.26470 | 33934 ft | 476 kts | 225° |
| 2026-04-24 12:04 | 39.91091 | -84.32476 | 33933 ft | 475 kts | 225° |
| 2026-04-24 12:04 | 39.86335 | -84.38461 | 33935 ft | 475 kts | 225° |
| 2026-04-24 12:05 | 39.81660 | -84.44444 | 33934 ft | 474 kts | 228° |
| 2026-04-24 12:05 | 39.77213 | -84.50761 | 33935 ft | 473 kts | 230° |
| 2026-04-24 12:06 | 39.72843 | -84.57147 | 33942 ft | 473 kts | 230° |
| 2026-04-24 12:06 | 39.68459 | -84.63509 | 33936 ft | 472 kts | 230° |
| 2026-04-24 12:07 | 39.64068 | -84.69838 | 33951 ft | 471 kts | 229° |
| 2026-04-24 12:07 | 39.59678 | -84.76143 | 33934 ft | 470 kts | 230° |
| 2026-04-24 12:08 | 39.55289 | -84.82438 | 33934 ft | 470 kts | 230° |
| 2026-04-24 12:08 | 39.50907 | -84.88704 | 33933 ft | 469 kts | 230° |
| 2026-04-24 12:09 | 39.46525 | -84.94956 | 33933 ft | 469 kts | 230° |
| 2026-04-24 12:09 | 39.42144 | -85.01195 | 33934 ft | 468 kts | 230° |
| 2026-04-24 12:10 | 39.37767 | -85.07415 | 33934 ft | 468 kts | 230° |
| 2026-04-24 12:11 | 39.31222 | -85.16690 | 33924 ft | 467 kts | 229° |
| 2026-04-24 12:11 | 39.26844 | -85.22878 | 33924 ft | 467 kts | 229° |
| 2026-04-24 12:12 | 39.22448 | -85.29041 | 33925 ft | 467 kts | 229° |
| 2026-04-24 12:12 | 39.18060 | -85.35204 | 33925 ft | 466 kts | 229° |
| 2026-04-24 12:13 | 39.13677 | -85.41360 | 33927 ft | 466 kts | 230° |
| 2026-04-24 12:13 | 39.09297 | -85.47501 | 33928 ft | 466 kts | 229° |
| 2026-04-24 12:14 | 39.04915 | -85.53640 | 33929 ft | 465 kts | 230° |
| 2026-04-24 12:14 | 39.00534 | -85.59766 | 33934 ft | 465 kts | 229° |
| 2026-04-24 12:15 | 38.96151 | -85.65878 | 33933 ft | 465 kts | 230° |
| 2026-04-24 12:15 | 38.91764 | -85.71984 | 33934 ft | 465 kts | 229° |
| 2026-04-24 12:16 | 38.87376 | -85.78077 | 33934 ft | 464 kts | 229° |
| 2026-04-24 12:16 | 38.82995 | -85.84157 | 33930 ft | 464 kts | 230° |
| 2026-04-24 12:17 | 38.78608 | -85.90226 | 33929 ft | 464 kts | 229° |
| 2026-04-24 12:17 | 38.74220 | -85.96287 | 33916 ft | 463 kts | 230° |
| 2026-04-24 12:18 | 38.69866 | -86.02286 | 33917 ft | 463 kts | 230° |
| 2026-04-24 12:18 | 38.65468 | -86.08292 | 33915 ft | 462 kts | 229° |
| 2026-04-24 12:19 | 38.61075 | -86.14302 | 33915 ft | 462 kts | 230° |
| 2026-04-24 12:19 | 38.56691 | -86.20308 | 33908 ft | 462 kts | 230° |
| 2026-04-24 12:20 | 38.52310 | -86.26306 | 33907 ft | 462 kts | 230° |
| 2026-04-24 12:20 | 38.47922 | -86.32298 | 33907 ft | 462 kts | 230° |
| 2026-04-24 12:21 | 38.43533 | -86.38279 | 33907 ft | 462 kts | 230° |
| 2026-04-24 12:21 | 38.39139 | -86.44251 | 33905 ft | 462 kts | 230° |
| 2026-04-24 12:22 | 38.34741 | -86.50219 | 33907 ft | 462 kts | 230° |
| 2026-04-24 12:22 | 38.30343 | -86.56181 | 33904 ft | 462 kts | 229° |
| 2026-04-24 12:23 | 38.25941 | -86.62137 | 33909 ft | 462 kts | 230° |
| 2026-04-24 12:23 | 38.21532 | -86.68088 | 33902 ft | 462 kts | 229° |
| 2026-04-24 12:24 | 38.17123 | -86.74025 | 33899 ft | 462 kts | 229° |
| 2026-04-24 12:24 | 38.12710 | -86.79954 | 33899 ft | 462 kts | 229° |
| 2026-04-24 12:25 | 38.08273 | -86.85870 | 33899 ft | 462 kts | 229° |
| 2026-04-24 12:25 | 38.03844 | -86.91783 | 33897 ft | 462 kts | 229° |
| 2026-04-24 12:26 | 37.99421 | -86.97692 | 33897 ft | 462 kts | 229° |
| 2026-04-24 12:26 | 37.94995 | -87.03598 | 33896 ft | 462 kts | 229° |
| 2026-04-24 12:27 | 37.90561 | -87.09501 | 33899 ft | 462 kts | 229° |
| 2026-04-24 12:27 | 37.86127 | -87.15398 | 33898 ft | 463 kts | 229° |
| 2026-04-24 12:28 | 37.81682 | -87.21299 | 33898 ft | 463 kts | 229° |
| 2026-04-24 12:28 | 37.77235 | -87.27192 | 33902 ft | 463 kts | 229° |
| 2026-04-24 12:29 | 37.72785 | -87.33077 | 33907 ft | 463 kts | 229° |
| 2026-04-24 12:29 | 37.68324 | -87.38960 | 33903 ft | 464 kts | 229° |
| 2026-04-24 12:30 | 37.63865 | -87.44833 | 33896 ft | 463 kts | 229° |
| 2026-04-24 12:30 | 37.59400 | -87.50702 | 33897 ft | 463 kts | 229° |
| 2026-04-24 12:31 | 37.54931 | -87.56556 | 33895 ft | 464 kts | 229° |
| 2026-04-24 12:31 | 37.50443 | -87.62394 | 33901 ft | 464 kts | 229° |
| 2026-04-24 12:32 | 37.45959 | -87.68242 | 33906 ft | 464 kts | 229° |
| 2026-04-24 12:32 | 37.41480 | -87.74086 | 33895 ft | 464 kts | 229° |
| 2026-04-24 12:33 | 37.36762 | -87.79648 | 33896 ft | 467 kts | 222° |
| 2026-04-24 12:33 | 37.31615 | -87.84646 | 33902 ft | 468 kts | 220° |
| 2026-04-24 12:34 | 37.26413 | -87.89565 | 33909 ft | 468 kts | 220° |
| 2026-04-24 12:34 | 37.21235 | -87.94523 | 33905 ft | 468 kts | 220° |
| 2026-04-24 12:35 | 37.16073 | -87.99492 | 33901 ft | 468 kts | 220° |
| 2026-04-24 12:35 | 37.10904 | -88.04470 | 33908 ft | 467 kts | 221° |
| 2026-04-24 12:36 | 37.05780 | -88.09392 | 33907 ft | 467 kts | 221° |
| 2026-04-24 12:36 | 37.00587 | -88.14371 | 33905 ft | 467 kts | 220° |
| 2026-04-24 12:37 | 36.95422 | -88.19311 | 33909 ft | 467 kts | 220° |
| 2026-04-24 12:37 | 36.90291 | -88.24211 | 33907 ft | 468 kts | 220° |
| 2026-04-24 12:38 | 36.85120 | -88.29149 | 33913 ft | 468 kts | 220° |
| 2026-04-24 12:38 | 36.79947 | -88.34078 | 33916 ft | 468 kts | 220° |
| 2026-04-24 12:39 | 36.69571 | -88.43903 | 33925 ft | 468 kts | 220° |
| 2026-04-24 12:40 | 36.64371 | -88.48804 | 33925 ft | 468 kts | 220° |
| 2026-04-24 12:40 | 36.59184 | -88.53699 | 33916 ft | 468 kts | 220° |
| 2026-04-24 12:41 | 36.53992 | -88.58604 | 33916 ft | 468 kts | 220° |
| 2026-04-24 12:41 | 36.48804 | -88.63495 | 33917 ft | 468 kts | 220° |
| 2026-04-24 12:42 | 36.43609 | -88.68378 | 33916 ft | 468 kts | 220° |
| 2026-04-24 12:42 | 36.38406 | -88.73267 | 33909 ft | 468 kts | 220° |
| 2026-04-24 12:43 | 36.33213 | -88.78133 | 33903 ft | 468 kts | 220° |
| 2026-04-24 12:43 | 36.28892 | -88.82173 | 33909 ft | 468 kts | 220° |
| 2026-04-24 12:44 | 36.23697 | -88.87025 | 33907 ft | 468 kts | 220° |
| 2026-04-24 12:44 | 36.18497 | -88.91877 | 33909 ft | 468 kts | 220° |
| 2026-04-24 12:45 | 36.13298 | -88.96712 | 33914 ft | 467 kts | 220° |
| 2026-04-24 12:45 | 36.08087 | -89.01516 | 33909 ft | 467 kts | 220° |
| 2026-04-24 12:46 | 36.02876 | -89.06313 | 33913 ft | 467 kts | 220° |
| 2026-04-24 12:46 | 35.97675 | -89.11098 | 33917 ft | 466 kts | 220° |
| 2026-04-24 12:47 | 35.92466 | -89.15895 | 33925 ft | 467 kts | 220° |
| 2026-04-24 12:47 | 35.87252 | -89.20690 | 33924 ft | 468 kts | 220° |
| 2026-04-24 12:48 | 35.82070 | -89.25448 | 33926 ft | 467 kts | 220° |
| 2026-04-24 12:48 | 35.76855 | -89.30223 | 33926 ft | 467 kts | 220° |
| 2026-04-24 12:49 | 35.71643 | -89.34989 | 33926 ft | 467 kts | 219° |
| 2026-04-24 12:49 | 35.66429 | -89.39751 | 33932 ft | 467 kts | 219° |
| 2026-04-24 12:50 | 35.61208 | -89.44510 | 33935 ft | 467 kts | 219° |
| 2026-04-24 12:50 | 35.55991 | -89.49255 | 33935 ft | 466 kts | 219° |
| 2026-04-24 12:51 | 35.50777 | -89.53995 | 33935 ft | 466 kts | 219° |
| 2026-04-24 12:51 | 35.45546 | -89.58726 | 33935 ft | 467 kts | 219° |
| 2026-04-24 12:52 | 35.40312 | -89.63440 | 33934 ft | 467 kts | 219° |
| 2026-04-24 12:52 | 35.35085 | -89.68154 | 33934 ft | 467 kts | 219° |
| 2026-04-24 12:53 | 35.29855 | -89.72875 | 33925 ft | 467 kts | 219° |
| 2026-04-24 12:53 | 35.24623 | -89.77589 | 33924 ft | 467 kts | 219° |
| 2026-04-24 12:54 | 35.19382 | -89.82301 | 33924 ft | 467 kts | 219° |
| 2026-04-24 12:54 | 35.14148 | -89.87001 | 33926 ft | 468 kts | 219° |
| 2026-04-24 12:55 | 35.08898 | -89.91708 | 33916 ft | 468 kts | 219° |
| 2026-04-24 12:55 | 35.03643 | -89.96408 | 33915 ft | 468 kts | 220° |
| 2026-04-24 12:56 | 34.98377 | -90.01113 | 33917 ft | 469 kts | 220° |
| 2026-04-24 12:56 | 34.93170 | -90.05782 | 33915 ft | 469 kts | 220° |
| 2026-04-24 12:57 | 34.87875 | -90.10535 | 33913 ft | 469 kts | 220° |
| 2026-04-24 12:57 | 34.82612 | -90.15248 | 33917 ft | 469 kts | 220° |
| 2026-04-24 12:58 | 34.77350 | -90.19955 | 33923 ft | 470 kts | 220° |
| 2026-04-24 12:58 | 34.72081 | -90.24655 | 33928 ft | 470 kts | 220° |
| 2026-04-24 12:59 | 34.66802 | -90.29358 | 33933 ft | 470 kts | 220° |
| 2026-04-24 12:59 | 34.61523 | -90.34061 | 33933 ft | 471 kts | 220° |
| 2026-04-24 13:00 | 34.56238 | -90.38753 | 33935 ft | 471 kts | 220° |
| 2026-04-24 13:00 | 34.50944 | -90.43446 | 33944 ft | 471 kts | 220° |
| 2026-04-24 13:01 | 34.45649 | -90.48133 | 33945 ft | 471 kts | 220° |
| 2026-04-24 13:01 | 34.40348 | -90.52820 | 33953 ft | 472 kts | 220° |
| 2026-04-24 13:02 | 34.35044 | -90.57499 | 33948 ft | 471 kts | 220° |
| 2026-04-24 13:02 | 34.29769 | -90.62124 | 33958 ft | 472 kts | 220° |
| 2026-04-24 13:03 | 34.24459 | -90.66777 | 33955 ft | 472 kts | 220° |
| 2026-04-24 13:03 | 34.19149 | -90.71437 | 33953 ft | 472 kts | 220° |
| 2026-04-24 13:04 | 34.13838 | -90.76095 | 33948 ft | 472 kts | 220° |
| 2026-04-24 13:04 | 34.08526 | -90.80746 | 33935 ft | 472 kts | 220° |
| 2026-04-24 13:05 | 34.03212 | -90.85390 | 33934 ft | 471 kts | 220° |
| 2026-04-24 13:05 | 33.97901 | -90.90029 | 33932 ft | 472 kts | 220° |
| 2026-04-24 13:06 | 33.92583 | -90.94672 | 33934 ft | 472 kts | 221° |
| 2026-04-24 13:06 | 33.87981 | -91.00128 | 33935 ft | 460 kts | 240° |
| 2026-04-24 13:07 | 33.85228 | -91.06965 | 33926 ft | 453 kts | 253° |
| 2026-04-24 13:07 | 33.83081 | -91.14089 | 33925 ft | 453 kts | 253° |
| 2026-04-24 13:08 | 33.80783 | -91.21160 | 33935 ft | 454 kts | 251° |
| 2026-04-24 13:08 | 33.78360 | -91.28182 | 33935 ft | 455 kts | 250° |
| 2026-04-24 13:09 | 33.74670 | -91.38682 | 33926 ft | 455 kts | 250° |
| 2026-04-24 13:09 | 33.72223 | -91.45635 | 33924 ft | 455 kts | 250° |
| 2026-04-24 13:10 | 33.69739 | -91.52674 | 33924 ft | 455 kts | 250° |
| 2026-04-24 13:10 | 33.67270 | -91.59669 | 33925 ft | 455 kts | 250° |
| 2026-04-24 13:11 | 33.64807 | -91.66616 | 33924 ft | 455 kts | 250° |
| 2026-04-24 13:11 | 33.62325 | -91.73605 | 33927 ft | 455 kts | 250° |
| 2026-04-24 13:12 | 33.59845 | -91.80591 | 33925 ft | 455 kts | 250° |
| 2026-04-24 13:12 | 33.57360 | -91.87570 | 33924 ft | 455 kts | 250° |
| 2026-04-24 13:13 | 33.54862 | -91.94542 | 33924 ft | 455 kts | 250° |
| 2026-04-24 13:13 | 33.52346 | -92.01505 | 33923 ft | 455 kts | 250° |
| 2026-04-24 13:14 | 33.49838 | -92.08462 | 33917 ft | 454 kts | 250° |
| 2026-04-24 13:14 | 33.47338 | -92.15409 | 33915 ft | 454 kts | 250° |
| 2026-04-24 13:15 | 33.44840 | -92.22347 | 33915 ft | 453 kts | 250° |
| 2026-04-24 13:15 | 33.42340 | -92.29277 | 33908 ft | 453 kts | 249° |
| 2026-04-24 13:16 | 33.39837 | -92.36190 | 33907 ft | 453 kts | 249° |
| 2026-04-24 13:16 | 33.37349 | -92.43053 | 33905 ft | 452 kts | 249° |
| 2026-04-24 13:17 | 33.34843 | -92.49948 | 33895 ft | 452 kts | 249° |
| 2026-04-24 13:17 | 33.32339 | -92.56829 | 33894 ft | 451 kts | 249° |
| 2026-04-24 13:18 | 33.29835 | -92.63710 | 34243 ft | 452 kts | 249° |
| 2026-04-24 13:18 | 33.28579 | -92.67153 | 34581 ft | 451 kts | 249° |
| 2026-04-24 13:18 | 33.27246 | -92.70547 | 34883 ft | 452 kts | 244° |
| 2026-04-24 13:19 | 33.25555 | -92.73713 | 35178 ft | 455 kts | 235° |
| 2026-04-24 13:19 | 33.23382 | -92.76472 | 35462 ft | 460 kts | 224° |
| 2026-04-24 13:19 | 33.20828 | -92.78802 | 35743 ft | 463 kts | 218° |
| 2026-04-24 13:19 | 33.18132 | -92.80904 | 35861 ft | 464 kts | 216° |
| 2026-04-24 13:20 | 33.12679 | -92.85032 | 35906 ft | 463 kts | 217° |
| 2026-04-24 13:20 | 33.07291 | -92.89317 | 35905 ft | 462 kts | 218° |
| 2026-04-24 13:21 | 33.02006 | -92.93650 | 35905 ft | 461 kts | 219° |
| 2026-04-24 13:21 | 32.96732 | -92.97998 | 35902 ft | 460 kts | 219° |
| 2026-04-24 13:22 | 32.91473 | -93.02321 | 35905 ft | 459 kts | 219° |
| 2026-04-24 13:22 | 32.86214 | -93.06639 | 35906 ft | 459 kts | 219° |
| 2026-04-24 13:23 | 32.80959 | -93.10943 | 35906 ft | 458 kts | 219° |
| 2026-04-24 13:23 | 32.75702 | -93.15241 | 35905 ft | 458 kts | 219° |
| 2026-04-24 13:24 | 32.70488 | -93.19488 | 35905 ft | 457 kts | 219° |
| 2026-04-24 13:24 | 32.65241 | -93.23735 | 35907 ft | 456 kts | 219° |
| 2026-04-24 13:25 | 32.59969 | -93.28002 | 35905 ft | 456 kts | 220° |
| 2026-04-24 13:25 | 32.54764 | -93.32212 | 35908 ft | 455 kts | 220° |
| 2026-04-24 13:26 | 32.49546 | -93.36429 | 35899 ft | 454 kts | 220° |
| 2026-04-24 13:26 | 32.44340 | -93.40630 | 35898 ft | 453 kts | 220° |
| 2026-04-24 13:27 | 32.39144 | -93.44819 | 35899 ft | 452 kts | 220° |
| 2026-04-24 13:27 | 32.34791 | -93.48324 | 35898 ft | 451 kts | 220° |
| 2026-04-24 13:28 | 32.29609 | -93.52485 | 35898 ft | 450 kts | 221° |
| 2026-04-24 13:28 | 32.24468 | -93.56612 | 35898 ft | 448 kts | 221° |
| 2026-04-24 13:29 | 32.19317 | -93.60743 | 35906 ft | 447 kts | 221° |
| 2026-04-24 13:29 | 32.14175 | -93.64863 | 35916 ft | 447 kts | 221° |
| 2026-04-24 13:30 | 32.09027 | -93.68978 | 35916 ft | 446 kts | 221° |
| 2026-04-24 13:30 | 32.03893 | -93.73072 | 35924 ft | 445 kts | 221° |
| 2026-04-24 13:31 | 31.98754 | -93.77147 | 35925 ft | 445 kts | 221° |
| 2026-04-24 13:31 | 31.93626 | -93.81218 | 35923 ft | 445 kts | 221° |
| 2026-04-24 13:32 | 31.88500 | -93.85291 | 35917 ft | 445 kts | 221° |
| 2026-04-24 13:32 | 31.83364 | -93.89366 | 35907 ft | 445 kts | 221° |
| 2026-04-24 13:33 | 31.78239 | -93.93430 | 35907 ft | 445 kts | 221° |
| 2026-04-24 13:33 | 31.73107 | -93.97485 | 35906 ft | 445 kts | 221° |
| 2026-04-24 13:34 | 31.67975 | -94.01537 | 35897 ft | 445 kts | 221° |
| 2026-04-24 13:34 | 31.62834 | -94.05593 | 35896 ft | 445 kts | 221° |
| 2026-04-24 13:35 | 31.57705 | -94.09636 | 35897 ft | 444 kts | 221° |
| 2026-04-24 13:35 | 31.52577 | -94.13671 | 35897 ft | 444 kts | 221° |
| 2026-04-24 13:36 | 31.47441 | -94.17705 | 35895 ft | 444 kts | 221° |
| 2026-04-24 13:36 | 31.42313 | -94.21729 | 35889 ft | 443 kts | 222° |
| 2026-04-24 13:37 | 31.37216 | -94.25726 | 35888 ft | 443 kts | 222° |
| 2026-04-24 13:37 | 31.32050 | -94.29766 | 35887 ft | 443 kts | 222° |
| 2026-04-24 13:38 | 31.26963 | -94.33741 | 35888 ft | 443 kts | 222° |
| 2026-04-24 13:38 | 31.21836 | -94.37730 | 35889 ft | 443 kts | 222° |
| 2026-04-24 13:39 | 31.16711 | -94.41724 | 35898 ft | 443 kts | 222° |
| 2026-04-24 13:39 | 31.11583 | -94.45717 | 35897 ft | 443 kts | 222° |
| 2026-04-24 13:40 | 31.06445 | -94.49710 | 35897 ft | 443 kts | 222° |
| 2026-04-24 13:40 | 31.01320 | -94.53696 | 35896 ft | 443 kts | 222° |
| 2026-04-24 13:41 | 30.96181 | -94.57678 | 35897 ft | 443 kts | 222° |
| 2026-04-24 13:41 | 30.91054 | -94.61649 | 35897 ft | 442 kts | 223° |
| 2026-04-24 13:42 | 30.85930 | -94.65615 | 35897 ft | 442 kts | 223° |
| 2026-04-24 13:42 | 30.80808 | -94.69573 | 35898 ft | 442 kts | 223° |
| 2026-04-24 13:43 | 30.75682 | -94.73525 | 35898 ft | 442 kts | 223° |
| 2026-04-24 13:43 | 30.70553 | -94.77479 | 35897 ft | 441 kts | 223° |
| 2026-04-24 13:44 | 30.65434 | -94.81418 | 35898 ft | 441 kts | 223° |
| 2026-04-24 13:44 | 30.60316 | -94.85354 | 35897 ft | 441 kts | 223° |
| 2026-04-24 13:45 | 30.55186 | -94.89290 | 35897 ft | 442 kts | 223° |
| 2026-04-24 13:45 | 30.50066 | -94.93213 | 35897 ft | 441 kts | 223° |
| 2026-04-24 13:46 | 30.44940 | -94.97124 | 35907 ft | 441 kts | 223° |
| 2026-04-24 13:46 | 30.39805 | -95.01039 | 35908 ft | 441 kts | 223° |
| 2026-04-24 13:47 | 30.34717 | -95.04922 | 35906 ft | 441 kts | 223° |
| 2026-04-24 13:47 | 30.29598 | -95.08825 | 35906 ft | 441 kts | 223° |
| 2026-04-24 13:48 | 30.24479 | -95.12723 | 35899 ft | 441 kts | 223° |
| 2026-04-24 13:48 | 30.19351 | -95.16625 | 35898 ft | 440 kts | 223° |
| 2026-04-24 13:49 | 30.14228 | -95.20516 | 35896 ft | 440 kts | 223° |
| 2026-04-24 13:49 | 30.09105 | -95.24402 | 35889 ft | 440 kts | 223° |
| 2026-04-24 13:50 | 30.03982 | -95.28278 | 35888 ft | 440 kts | 223° |
| 2026-04-24 13:50 | 29.98864 | -95.32148 | 35887 ft | 440 kts | 223° |
| 2026-04-24 13:51 | 29.93793 | -95.36083 | 35888 ft | 438 kts | 225° |
| 2026-04-24 13:51 | 29.88827 | -95.40150 | 35889 ft | 437 kts | 225° |
| 2026-04-24 13:52 | 29.83881 | -95.44230 | 35879 ft | 437 kts | 225° |
| 2026-04-24 13:52 | 29.78926 | -95.48292 | 35880 ft | 437 kts | 225° |
| 2026-04-24 13:53 | 29.73966 | -95.52352 | 35879 ft | 438 kts | 225° |
| 2026-04-24 13:53 | 29.69005 | -95.56405 | 35881 ft | 438 kts | 225° |
| 2026-04-24 13:54 | 29.64037 | -95.60459 | 35872 ft | 438 kts | 225° |
| 2026-04-24 13:54 | 29.59073 | -95.64505 | 35879 ft | 438 kts | 225° |
| 2026-04-24 13:55 | 29.54108 | -95.68547 | 35881 ft | 438 kts | 225° |
| 2026-04-24 13:55 | 29.49136 | -95.72590 | 35883 ft | 438 kts | 225° |
| 2026-04-24 13:56 | 29.44169 | -95.76625 | 35887 ft | 438 kts | 225° |
| 2026-04-24 13:56 | 29.39202 | -95.80655 | 35888 ft | 437 kts | 225° |
| 2026-04-24 13:57 | 29.34229 | -95.84679 | 35887 ft | 438 kts | 225° |
| 2026-04-24 13:57 | 29.29247 | -95.88705 | 35887 ft | 439 kts | 225° |
| 2026-04-24 13:58 | 29.24249 | -95.92733 | 35887 ft | 440 kts | 225° |
| 2026-04-24 13:58 | 29.19244 | -95.96759 | 35888 ft | 440 kts | 225° |
| 2026-04-24 13:59 | 29.14237 | -96.00784 | 35888 ft | 440 kts | 225° |
| 2026-04-24 13:59 | 29.09242 | -96.04807 | 35881 ft | 439 kts | 225° |
| 2026-04-24 14:00 | 29.04243 | -96.08830 | 35880 ft | 439 kts | 225° |
| 2026-04-24 14:00 | 28.99245 | -96.12846 | 35879 ft | 440 kts | 225° |
| 2026-04-24 14:01 | 28.94238 | -96.16863 | 35867 ft | 440 kts | 225° |
| 2026-04-24 14:01 | 28.89226 | -96.20880 | 35881 ft | 441 kts | 225° |
| 2026-04-24 14:02 | 28.84200 | -96.24902 | 35882 ft | 442 kts | 225° |
| 2026-04-24 14:02 | 28.79126 | -96.28872 | 35871 ft | 447 kts | 220° |
| 2026-04-24 14:03 | 28.76281 | -96.30434 | 35880 ft | 462 kts | 210° |
| 2026-04-24 14:03 | 28.73162 | -96.31489 | 35880 ft | 472 kts | 204° |
| 2026-04-24 14:03 | 28.66679 | -96.32991 | 35881 ft | 477 kts | 201° |
| 2026-04-24 14:04 | 28.60186 | -96.34466 | 35880 ft | 475 kts | 202° |
| 2026-04-24 14:04 | 28.53731 | -96.36075 | 35880 ft | 475 kts | 203° |
| 2026-04-24 14:05 | 28.47279 | -96.37740 | 35863 ft | 475 kts | 203° |
| 2026-04-24 14:05 | 28.40830 | -96.39407 | 35868 ft | 475 kts | 203° |
| 2026-04-24 14:06 | 28.34379 | -96.41073 | 35861 ft | 476 kts | 203° |
| 2026-04-24 14:06 | 28.27912 | -96.42735 | 35864 ft | 477 kts | 203° |
| 2026-04-24 14:07 | 28.21443 | -96.44395 | 35877 ft | 477 kts | 203° |
| 2026-04-24 14:07 | 28.14964 | -96.46054 | 35871 ft | 477 kts | 203° |
| 2026-04-24 14:08 | 28.08483 | -96.47713 | 35874 ft | 477 kts | 203° |
| 2026-04-24 14:08 | 28.02054 | -96.49355 | 35881 ft | 477 kts | 203° |
| 2026-04-24 14:09 | 27.95567 | -96.51010 | 35866 ft | 479 kts | 202° |
| 2026-04-24 14:09 | 27.89063 | -96.52665 | 35881 ft | 479 kts | 202° |
| 2026-04-24 14:10 | 27.82565 | -96.54318 | 35882 ft | 479 kts | 202° |
| 2026-04-24 14:10 | 27.76061 | -96.55972 | 35871 ft | 479 kts | 202° |
| 2026-04-24 14:11 | 27.70655 | -96.57348 | 35880 ft | 479 kts | 202° |
| 2026-04-24 14:12 | 27.60896 | -96.59822 | 35888 ft | 479 kts | 202° |
| 2026-04-24 14:12 | 27.54396 | -96.61468 | 35887 ft | 479 kts | 202° |
| 2026-04-24 14:13 | 27.47893 | -96.63115 | 35884 ft | 479 kts | 202° |
| 2026-04-24 14:13 | 27.41389 | -96.64759 | 35887 ft | 479 kts | 202° |
| 2026-04-24 14:14 | 27.34876 | -96.66403 | 35880 ft | 480 kts | 202° |
| 2026-04-24 14:14 | 27.25116 | -96.68862 | 35879 ft | 479 kts | 202° |
| 2026-04-24 14:15 | 27.18611 | -96.70499 | 35880 ft | 479 kts | 202° |
| 2026-04-24 14:15 | 27.12113 | -96.72137 | 35873 ft | 479 kts | 202° |
| 2026-04-24 14:16 | 27.05605 | -96.73768 | 35867 ft | 479 kts | 202° |
| 2026-04-24 14:17 | 26.95828 | -96.76209 | 35870 ft | 480 kts | 201° |
| 2026-04-24 14:17 | 26.86040 | -96.78660 | 35864 ft | 481 kts | 202° |
| 2026-04-24 14:18 | 26.79512 | -96.80291 | 35858 ft | 481 kts | 201° |
| 2026-04-24 14:18 | 26.72981 | -96.81923 | 35858 ft | 481 kts | 201° |
| 2026-04-24 14:19 | 26.66455 | -96.83548 | 35867 ft | 481 kts | 201° |
| 2026-04-24 14:19 | 26.59931 | -96.85173 | 35855 ft | 481 kts | 201° |
| 2026-04-24 14:20 | 26.53402 | -96.86803 | 35852 ft | 481 kts | 201° |
| 2026-04-24 14:20 | 26.46871 | -96.88422 | 35862 ft | 481 kts | 201° |
| 2026-04-24 14:21 | 26.40339 | -96.90040 | 35854 ft | 481 kts | 201° |
| 2026-04-24 14:21 | 26.33808 | -96.91659 | 35853 ft | 481 kts | 201° |
| 2026-04-24 14:22 | 26.27269 | -96.93274 | 35845 ft | 481 kts | 201° |
| 2026-04-24 14:23 | 26.17466 | -96.95692 | 35847 ft | 481 kts | 201° |
| 2026-04-24 14:23 | 26.10935 | -96.97306 | 35850 ft | 481 kts | 201° |
| 2026-04-24 14:24 | 26.04398 | -96.98914 | 35848 ft | 481 kts | 201° |
| 2026-04-24 14:24 | 25.97896 | -97.00483 | 35850 ft | 482 kts | 200° |
| 2026-04-24 14:25 | 25.91302 | -97.01964 | 35854 ft | 484 kts | 199° |
| 2026-04-24 14:25 | 25.84696 | -97.03426 | 35845 ft | 484 kts | 199° |
| 2026-04-24 14:26 | 25.78093 | -97.04894 | 35840 ft | 484 kts | 199° |
| 2026-04-24 14:26 | 25.71494 | -97.06364 | 35843 ft | 484 kts | 199° |
| 2026-04-24 14:27 | 25.64887 | -97.07833 | 35839 ft | 484 kts | 199° |
| 2026-04-24 14:27 | 25.58283 | -97.09304 | 35844 ft | 484 kts | 199° |
| 2026-04-24 14:28 | 25.51693 | -97.10810 | 35834 ft | 483 kts | 200° |
| 2026-04-24 14:28 | 25.45116 | -97.12385 | 35833 ft | 483 kts | 200° |
| 2026-04-24 14:29 | 25.38547 | -97.13963 | 35825 ft | 483 kts | 200° |
| 2026-04-24 14:29 | 25.31982 | -97.15534 | 35834 ft | 483 kts | 200° |
| 2026-04-24 14:30 | 25.26524 | -97.16842 | 35833 ft | 483 kts | 200° |
| 2026-04-24 14:30 | 25.18845 | -97.18678 | 35833 ft | 484 kts | 200° |
| 2026-04-24 14:31 | 25.12258 | -97.20246 | 35833 ft | 484 kts | 200° |
| 2026-04-24 14:31 | 25.05675 | -97.21812 | 35832 ft | 484 kts | 200° |
| 2026-04-24 14:32 | 24.99091 | -97.23375 | 35834 ft | 484 kts | 199° |
| 2026-04-24 14:32 | 24.92500 | -97.24938 | 35832 ft | 484 kts | 200° |
| 2026-04-24 14:33 | 24.85913 | -97.26504 | 35831 ft | 484 kts | 200° |
| 2026-04-24 14:33 | 24.79330 | -97.28068 | 35833 ft | 484 kts | 200° |
| 2026-04-24 14:34 | 24.72786 | -97.29619 | 35830 ft | 484 kts | 199° |
| 2026-04-24 14:34 | 24.66203 | -97.31181 | 35830 ft | 484 kts | 200° |
| 2026-04-24 14:35 | 24.59619 | -97.32741 | 35828 ft | 484 kts | 200° |
| 2026-04-24 14:35 | 24.53035 | -97.34304 | 35833 ft | 484 kts | 200° |
| 2026-04-24 14:36 | 24.46481 | -97.35960 | 35830 ft | 483 kts | 200° |
| 2026-04-24 14:36 | 24.39942 | -97.37659 | 35833 ft | 483 kts | 200° |
| 2026-04-24 14:37 | 24.33399 | -97.39352 | 35833 ft | 483 kts | 200° |
| 2026-04-24 14:37 | 24.26827 | -97.40918 | 35829 ft | 484 kts | 199° |
| 2026-04-24 14:38 | 24.20232 | -97.42428 | 35830 ft | 484 kts | 199° |
| 2026-04-24 14:38 | 24.13638 | -97.43939 | 35833 ft | 484 kts | 199° |
| 2026-04-24 14:39 | 24.07050 | -97.45456 | 35830 ft | 483 kts | 199° |
| 2026-04-24 14:39 | 24.00467 | -97.46970 | 35824 ft | 483 kts | 199° |
| 2026-04-24 14:40 | 23.93887 | -97.48486 | 35830 ft | 484 kts | 199° |
| 2026-04-24 14:40 | 23.87292 | -97.50000 | 35833 ft | 484 kts | 199° |
| 2026-04-24 14:41 | 23.80740 | -97.51504 | 35824 ft | 484 kts | 199° |
| 2026-04-24 14:41 | 23.74106 | -97.53024 | 35823 ft | 484 kts | 199° |
| 2026-04-24 14:42 | 23.68618 | -97.54281 | 35825 ft | 484 kts | 199° |
| 2026-04-24 14:42 | 23.60955 | -97.56038 | 35833 ft | 484 kts | 198° |
| 2026-04-24 14:43 | 23.54321 | -97.57548 | 35831 ft | 484 kts | 198° |
| 2026-04-24 14:43 | 23.47707 | -97.59053 | 35830 ft | 485 kts | 198° |
| 2026-04-24 14:44 | 23.41149 | -97.60552 | 35828 ft | 485 kts | 198° |
| 2026-04-24 14:44 | 23.34532 | -97.62059 | 35829 ft | 486 kts | 198° |
| 2026-04-24 14:45 | 23.27917 | -97.63563 | 35829 ft | 486 kts | 198° |
| 2026-04-24 14:45 | 23.21294 | -97.65068 | 35833 ft | 486 kts | 198° |
| 2026-04-24 14:46 | 23.14677 | -97.66585 | 35833 ft | 486 kts | 198° |
| 2026-04-24 14:46 | 23.08057 | -97.68112 | 35833 ft | 486 kts | 198° |
| 2026-04-24 14:47 | 23.02553 | -97.69387 | 35834 ft | 487 kts | 198° |
| 2026-04-24 14:47 | 22.94806 | -97.71170 | 35838 ft | 487 kts | 198° |
| 2026-04-24 14:48 | 22.88174 | -97.72695 | 35837 ft | 487 kts | 198° |
| 2026-04-24 14:48 | 22.81534 | -97.74223 | 35839 ft | 488 kts | 198° |
| 2026-04-24 14:49 | 22.74898 | -97.75747 | 35844 ft | 488 kts | 198° |
| 2026-04-24 14:49 | 22.68263 | -97.77268 | 35841 ft | 487 kts | 198° |
| 2026-04-24 14:50 | 22.61667 | -97.78777 | 35839 ft | 488 kts | 198° |
| 2026-04-24 14:50 | 22.55026 | -97.80300 | 35842 ft | 487 kts | 198° |
| 2026-04-24 14:51 | 22.48392 | -97.81826 | 35844 ft | 488 kts | 198° |
| 2026-04-24 14:51 | 22.41751 | -97.83347 | 35840 ft | 488 kts | 197° |
| 2026-04-24 14:52 | 22.35113 | -97.84860 | 35843 ft | 488 kts | 197° |
| 2026-04-24 14:52 | 22.28466 | -97.86363 | 35841 ft | 488 kts | 197° |
| 2026-04-24 14:53 | 22.21801 | -97.87762 | 35836 ft | 489 kts | 196° |
| 2026-04-24 14:53 | 22.15113 | -97.89120 | 35841 ft | 489 kts | 196° |
| 2026-04-24 14:54 | 22.08427 | -97.90479 | 35843 ft | 489 kts | 196° |
| 2026-04-24 14:54 | 22.01750 | -97.91846 | 35843 ft | 489 kts | 196° |
| 2026-04-24 14:55 | 21.96153 | -97.92995 | 35841 ft | 489 kts | 196° |
| 2026-04-24 14:55 | 21.88388 | -97.94587 | 35846 ft | 489 kts | 196° |
| 2026-04-24 14:56 | 21.81710 | -97.95957 | 35844 ft | 489 kts | 196° |
| 2026-04-24 14:56 | 21.75048 | -97.97321 | 35856 ft | 488 kts | 196° |
| 2026-04-24 14:57 | 21.69491 | -97.98455 | 35853 ft | 488 kts | 196° |
| 2026-04-24 14:57 | 21.62804 | -97.99816 | 35851 ft | 489 kts | 196° |
| 2026-04-24 14:58 | 21.56117 | -98.01180 | 35866 ft | 489 kts | 196° |
| 2026-04-24 14:58 | 21.49442 | -98.02538 | 35867 ft | 488 kts | 196° |
| 2026-04-24 14:59 | 21.42765 | -98.03893 | 35867 ft | 488 kts | 196° |
| 2026-04-24 14:59 | 21.36089 | -98.05248 | 35862 ft | 488 kts | 196° |
| 2026-04-24 15:00 | 21.29403 | -98.06603 | 35873 ft | 488 kts | 195° |
| 2026-04-24 15:00 | 21.22729 | -98.07957 | 35881 ft | 489 kts | 195° |
| 2026-04-24 15:01 | 21.16052 | -98.09308 | 35880 ft | 488 kts | 195° |
| 2026-04-24 15:01 | 21.09364 | -98.10665 | 35884 ft | 488 kts | 195° |
| 2026-04-24 15:02 | 21.02759 | -98.12001 | 35888 ft | 486 kts | 195° |
| 2026-04-24 15:02 | 20.96068 | -98.13346 | 35886 ft | 486 kts | 195° |
| 2026-04-24 15:03 | 20.89469 | -98.14679 | 35894 ft | 486 kts | 195° |
| 2026-04-24 15:03 | 20.83127 | -98.15959 | 35897 ft | 485 kts | 195° |
| 2026-04-24 15:04 | 20.76491 | -98.17292 | 35898 ft | 486 kts | 195° |
| 2026-04-24 15:04 | 20.69845 | -98.18630 | 35908 ft | 486 kts | 195° |
| 2026-04-24 15:05 | 20.63210 | -98.19961 | 35920 ft | 485 kts | 195° |
| 2026-04-24 15:05 | 20.56582 | -98.21288 | 35938 ft | 485 kts | 195° |
| 2026-04-24 15:06 | 20.49946 | -98.22613 | 35947 ft | 485 kts | 194° |
| 2026-04-24 15:06 | 20.43319 | -98.23943 | 35957 ft | 485 kts | 194° |
| 2026-04-24 15:07 | 20.36688 | -98.25273 | 35963 ft | 485 kts | 194° |
| 2026-04-24 15:07 | 20.30053 | -98.26592 | 35960 ft | 485 kts | 194° |
| 2026-04-24 15:08 | 20.23430 | -98.27917 | 35969 ft | 484 kts | 194° |
| 2026-04-24 15:08 | 20.16809 | -98.29249 | 35970 ft | 484 kts | 194° |
| 2026-04-24 15:09 | 20.10184 | -98.30574 | 35970 ft | 484 kts | 194° |
| 2026-04-24 15:09 | 20.03565 | -98.31894 | 35974 ft | 484 kts | 194° |
| 2026-04-24 15:10 | 19.96943 | -98.33211 | 35970 ft | 484 kts | 194° |
| 2026-04-24 15:10 | 19.90324 | -98.34531 | 35979 ft | 484 kts | 194° |
| 2026-04-24 15:11 | 19.83700 | -98.35850 | 35995 ft | 484 kts | 194° |
| 2026-04-24 15:11 | 19.77082 | -98.37167 | 36014 ft | 484 kts | 194° |
| 2026-04-24 15:12 | 19.70464 | -98.38493 | 36106 ft | 484 kts | 194° |
| 2026-04-24 15:12 | 19.63939 | -98.40130 | 36167 ft | 478 kts | 205° |
| 2026-04-24 15:12 | 19.60964 | -98.41642 | 36191 ft | 472 kts | 215° |
| 2026-04-24 15:13 | 19.55947 | -98.45930 | 36227 ft | 466 kts | 227° |
| 2026-04-24 15:13 | 19.51227 | -98.50665 | 36253 ft | 467 kts | 226° |
| 2026-04-24 15:14 | 19.46380 | -98.55273 | 36271 ft | 468 kts | 224° |
| 2026-04-24 15:14 | 19.41436 | -98.59785 | 36282 ft | 469 kts | 224° |
| 2026-04-24 15:15 | 19.36470 | -98.64272 | 36275 ft | 469 kts | 224° |
| 2026-04-24 15:15 | 19.31508 | -98.68754 | 36275 ft | 469 kts | 224° |
| 2026-04-24 15:16 | 19.26537 | -98.73246 | 36275 ft | 470 kts | 224° |
| 2026-04-24 15:16 | 19.21569 | -98.77737 | 36276 ft | 470 kts | 224° |
| 2026-04-24 15:17 | 19.16549 | -98.82174 | 36268 ft | 472 kts | 219° |
| 2026-04-24 15:17 | 19.10668 | -98.85301 | 36271 ft | 480 kts | 198° |
| 2026-04-24 15:18 | 19.04038 | -98.86432 | 36260 ft | 485 kts | 188° |
| 2026-04-24 15:18 | 18.97314 | -98.87170 | 36242 ft | 485 kts | 189° |
| 2026-04-24 15:19 | 18.90635 | -98.88106 | 36231 ft | 484 kts | 191° |
| 2026-04-24 15:19 | 18.83980 | -98.89163 | 36197 ft | 484 kts | 191° |
| 2026-04-24 15:20 | 18.77343 | -98.90353 | 36187 ft | 482 kts | 195° |
| 2026-04-24 15:20 | 18.70866 | -98.92157 | 36184 ft | 481 kts | 199° |
| 2026-04-24 15:21 | 18.64446 | -98.94156 | 36181 ft | 481 kts | 199° |
| 2026-04-24 15:21 | 18.58015 | -98.96125 | 36185 ft | 481 kts | 199° |
| 2026-04-24 15:22 | 18.51583 | -98.98063 | 36174 ft | 481 kts | 199° |
| 2026-04-24 15:23 | 18.41999 | -99.00922 | 36003 ft | 470 kts | 198° |
| 2026-04-24 15:23 | 18.35826 | -99.02764 | 35119 ft | 457 kts | 199° |
| 2026-04-24 15:23 | 18.32763 | -99.03683 | 34487 ft | 458 kts | 199° |
| 2026-04-24 15:24 | 18.23502 | -99.06460 | 32654 ft | 464 kts | 199° |
| 2026-04-24 15:25 | 18.18272 | -99.08023 | 31627 ft | 468 kts | 198° |
| 2026-04-24 15:25 | 18.10955 | -99.10201 | 30167 ft | 472 kts | 198° |
| 2026-04-24 15:26 | 18.01401 | -99.13050 | 28218 ft | 479 kts | 198° |
| 2026-04-24 15:27 | 17.91737 | -99.15926 | 26202 ft | 480 kts | 197° |
| 2026-04-24 15:27 | 17.82218 | -99.18749 | 24160 ft | 468 kts | 197° |
| 2026-04-24 15:28 | 17.69899 | -99.22410 | 21518 ft | 451 kts | 197° |
| 2026-04-24 15:29 | 17.63990 | -99.24377 | 20230 ft | 441 kts | 204° |
| 2026-04-24 15:30 | 17.56048 | -99.28869 | 18303 ft | 426 kts | 211° |
| 2026-04-24 15:31 | 17.46573 | -99.33926 | 16012 ft | 411 kts | 199° |
| 2026-04-24 15:32 | 17.34979 | -99.37638 | 13497 ft | 392 kts | 197° |
| 2026-04-24 15:33 | 17.24738 | -99.40956 | 11824 ft | 380 kts | 197° |
| 2026-04-24 15:33 | 17.17571 | -99.43294 | 11520 ft | 330 kts | 198° |
| 2026-04-24 15:34 | 17.13440 | -99.44633 | 11239 ft | 305 kts | 198° |
| 2026-04-24 15:35 | 17.07315 | -99.46615 | 9442 ft | 314 kts | 198° |
| 2026-04-24 15:35 | 17.03150 | -99.47963 | 8490 ft | 309 kts | 198° |
| 2026-04-24 15:35 | 17.01117 | -99.48622 | 8107 ft | 303 kts | 198° |
| 2026-04-24 15:36 | 16.99122 | -99.49266 | 7740 ft | 298 kts | 198° |
| 2026-04-24 15:36 | 16.95295 | -99.50508 | 7504 ft | 280 kts | 198° |
| 2026-04-24 15:36 | 16.93402 | -99.51123 | 6943 ft | 290 kts | 198° |
| 2026-04-24 15:37 | 16.91476 | -99.51750 | 6263 ft | 287 kts | 198° |
| 2026-04-24 15:37 | 16.89606 | -99.52355 | 5621 ft | 274 kts | 198° |
| 2026-04-24 15:37 | 16.88378 | -99.52755 | 5276 ft | 271 kts | 198° |
| 2026-04-24 15:37 | 16.86121 | -99.53490 | 4764 ft | 241 kts | 198° |
| 2026-04-24 15:38 | 16.84562 | -99.53997 | 4360 ft | 232 kts | 198° |
| 2026-04-24 15:38 | 16.83042 | -99.54496 | 4083 ft | 225 kts | 199° |
| 2026-04-24 15:38 | 16.81535 | -99.54989 | 4018 ft | 227 kts | 198° |
| 2026-04-24 15:38 | 16.80029 | -99.55481 | 4016 ft | 227 kts | 199° |
| 2026-04-24 15:39 | 16.78586 | -99.56066 | 3976 ft | 213 kts | 213° |
| 2026-04-24 15:39 | 16.77427 | -99.56962 | 3730 ft | 207 kts | 221° |
| 2026-04-24 15:39 | 16.76332 | -99.57931 | 3324 ft | 204 kts | 221° |
| 2026-04-24 15:39 | 16.75283 | -99.58874 | 2985 ft | 196 kts | 222° |
| 2026-04-24 15:40 | 16.74264 | -99.59794 | 2523 ft | 190 kts | 221° |
| 2026-04-24 15:40 | 16.73331 | -99.60648 | 2375 ft | 169 kts | 223° |
| 2026-04-24 15:40 | 16.72596 | -99.61572 | 2402 ft | 164 kts | 240° |
| 2026-04-24 15:40 | 16.72218 | -99.62674 | 2367 ft | 161 kts | 261° |
| 2026-04-24 15:41 | 16.72267 | -99.63832 | 1921 ft | 160 kts | 281° |
| 2026-04-24 15:41 | 16.72503 | -99.64956 | 1611 ft | 160 kts | 282° |
| 2026-04-24 15:41 | 16.72789 | -99.66090 | 1481 ft | 163 kts | 286° |
| 2026-04-24 15:41 | 16.73138 | -99.67215 | 1270 ft | 163 kts | 288° |
| 2026-04-24 15:42 | 16.73492 | -99.68332 | 1051 ft | 162 kts | 289° |
| 2026-04-24 15:42 | 16.73838 | -99.69438 | 848 ft | 159 kts | 289° |
| 2026-04-24 15:42 | 16.74180 | -99.70520 | 627 ft | 156 kts | 289° |
| 2026-04-24 15:42 | 16.74521 | -99.71601 | 417 ft | 155 kts | 289° |
| 2026-04-24 15:43 | 16.74844 | -99.72656 | 197 ft | 151 kts | 289° |
| 2026-04-24 15:43 | 16.75066 | -99.73352 | 62 ft | 155 kts | 289° |
| 2026-04-24 15:43 | 16.75400 | -99.74429 | 29 ft | 148 kts | 288° |
| 2026-04-24 15:43 | 16.75703 | -99.75291 | 26 ft | 103 kts | 286° |
| 2026-04-24 15:44 | 16.75871 | -99.75877 | 27 ft | 67 kts | 287° |
| 2026-04-24 15:44 | 16.75943 | -99.76118 | 27 ft | 13 kts | 287° |
| 2026-04-24 15:44 | 16.75958 | -99.76165 | 28 ft | 6 kts | 287° |
| 2026-04-24 15:44 | 16.75965 | -99.76189 | 29 ft | 8 kts | 288° |
| 2026-04-24 15:45 | 16.75984 | -99.76244 | 28 ft | 7 kts | 298° |
| 2026-04-24 15:45 | 16.76013 | -99.76267 | 25 ft | 4 kts | 337° |
| 2026-04-24 15:45 | 16.76034 | -99.76270 | 25 ft | 2 kts | 356° |
| 2026-04-24 15:45 | 16.76074 | -99.76269 | 25 ft | 10 kts | 5° |
| 2026-04-24 15:46 | 16.76145 | -99.76229 | 27 ft | 13 kts | 52° |
| 2026-04-24 15:46 | 16.76145 | -99.76137 | 27 ft | 11 kts | 107° |
| 2026-04-24 15:46 | 16.76114 | -99.76039 | 28 ft | 17 kts | 108° |
| 2026-04-24 15:46 | 16.76075 | -99.75912 | 27 ft | 11 kts | 107° |
| 2026-04-24 15:47 | 16.76057 | -99.75852 | 25 ft | 11 kts | 103° |
| 2026-04-24 15:47 | 16.76084 | -99.75767 | 27 ft | 7 kts | 71° |
| 2026-04-24 15:47 | 16.76077 | -99.75696 | 27 ft | 13 kts | 106° |
| 2026-04-24 15:47 | 16.76050 | -99.75596 | 26 ft | 9 kts | 105° |
| 2026-04-24 15:48 | 16.76043 | -99.75573 | 27 ft | 4 kts | 112° |
| 2026-04-24 15:48 | 16.76031 | -99.75546 | 25 ft | 1 kts | 114° |
| 2026-04-24 15:48 | 16.76033 | -99.75524 | 29 ft | 3 kts | 69° |
| 2026-04-24 15:48 | 16.76047 | -99.75516 | 28 ft | 3 kts | 17° |
| 2026-04-24 15:49 | 16.76087 | -99.75503 | 26 ft | 9 kts | 19° |
| 2026-04-24 15:49 | 16.76112 | -99.75494 | 27 ft | 2 kts | 18° |
| 2026-04-24 15:49 | 16.76117 | -99.75492 | 26 ft | 0 kts | 18° |